Thursday, November 27, 2014
23:06 UTC
  |  Log In   |  Register Free
Airport Search:

Kingsville Nas Airport
(KNQI)

FAA data valid effective November 13, 2014 - January 08, 2015 (unless otherwise noted).

 
 
 
 
 
 
 
 
 
 
 
 
 
 

Current Aviation Weather for Kingsville Nas Airport (KNQI)

The most recent METAR observation for KNQI was updated at: 2216
METAR Summary (Translated METAR)
KNQI
272156Z AUTO 07012KT 10SM SCT055 22/13 A3036 RMK AO2 SLP277 T02220128
KRBO
272155Z AUTO 08013G17KT 10SM CLR 21/12 A3038 RMK AO2 T02100121
(17.5 nm NE from KNQI)
KALI
272153Z AUTO 08007KT 10SM CLR 22/09 A3036 RMK AO2 SLP278 T02220089 $
(18.2 nm NW from KNQI)
TAF Summary (Translated TAF)
KNQI
2715/2815 VRB06KT 9999 SKC QNH3030INS BECMG 2717/2719 04009KT QNH3032INS BECMG 2723/2801 09010KT FEW250 QNH3029INS AUTOMATED SENSOR METWATCH 2715 TIL 2812 T22/2721Z T14/2812Z FN00069
KALI
(18.2 nm NW from KNQI)
271730Z 2718/2818 09008KT P6SM SKC FM280800 VRB03KT 5SM BR SCT015 TEMPO 2811/2814 2SM BR BKN015 FM281600 17006KT P6SM SCT025
  Airport Weather Conditions for KNQI

 Current Weather at NQI
72° F
Partly Cloudy
East winds at 13.8 mph
NQI NOAA Radar

Pressure: 30.36 in
Humidity: 55%
Wind: East at 13.8 MPH (12 KT)
Dew Point: 55.0°F
Visibility: 10.00 mi


Airport Weather Forecast for KNQI

Translated METAR and TAF for KNQI
Translated METAR for KNQI (2301 UTC 27 November 2014)
found at http://aviationweather.gov/adds/metars/
 
METAR text: KNQI 272256Z AUTO 07013KT 10SM CLR 20/14 A3037 RMK AO2 SLP280 T02000139
Conditions at: KNQI (KINGSVILLE NAS , TX, US) observed 2256 UTC 27 November 2014
Temperature: 20.0°C (68°F)
Dewpoint: 13.9°C (57°F) [RH = 68%]
Pressure (altimeter): 30.37 inches Hg (1028.5 mb)
[Sea-level pressure: 1028.0 mb]
Winds: from the ENE (70 degrees) at 15 MPH (13 knots; 6.8 m/s)
Visibility: 10 or more miles (16+ km)
Ceiling: at least 12,000 feet AGL
Clouds: sky clear below 12,000 feet AGL
Weather: automated observation with no human augmentation;
there may or may not be significant weather present at this time
Translated TAF for KNQI
Forecast for: KNQI (KINGSVILLE NAS , TX, US)
TAF Text: TAF KNQI 2715/2815 VRB06KT 9999 SKC QNH3030INS
Forecast period: 1500 to 1700 UTC 27 November 2014
Forecast type: FROM: standard forecast or significant change
Winds: variable direction winds at 7 MPH (6 knots; 3.1 m/s)
Visibility: 6 or more miles (10+ km)
Clouds: clear skies
Weather: no significant weather forecast for this period
TAF Text: BECMG 2717/2719 04009KT QNH3032INS
Forecast period: 1700 to 2300 UTC 27 November 2014
Forecast type: BECOMING: Conditions expected to become as follows by 1900 UTC 27 November 2014
Winds: from the NE (40 degrees) at 10 MPH (9 knots; 4.7 m/s)
Visibility: 6 or more miles (10+ km)
Clouds: clear skies
Weather: no significant weather forecast for this period
TAF Text: BECMG 2723/2801 09010KT FEW250 QNH3029INS AUTOMATED SENSOR METWATCH 2715 TIL 2812 T22/2721Z T14/2812Z FN00069
Forecast period: 2300 UTC 27 November 2014 to 1500 UTC 28 November 2014
Forecast type: BECOMING: Conditions expected to become as follows by 0100 UTC 28 November 2014
Winds: from the E (90 degrees) at 12 MPH (10 knots; 5.2 m/s)
Visibility: 1.69 miles (2.72 km)
Clouds: few clouds at 25000 feet AGL
Weather: no significant weather forecast for this period

Find All Airport Services Find A Hotel Find A Rental Car Find A Golf Course Find A Restaurant $100 Hamburger



FBO's on the Field
FBO Company Facility Photos Services Transportation Aviation Fuel Prices: Prices include tax
Catering Weather Repair Courtesy Rental Type 100LL JetA JetA+ MOGAS 8087
 
Add another FBO Facility Photos Catering Weather Repair Courtesy Rental Type 100LL JetA JetA+ MOGAS 8087
Services Transportation Aviation Fuel Prices: Prices include tax
There are no FBO's currently reporting fuel at NQI. List your FBO now


model-print
model-print
model-print
model-print